地図

経路データ

SID SEASON NUMBER BASIN SUBBASIN NAME ISO_TIME NATURE LAT LON WMO_WIND WMO_PRES WMO_AGENCY TRACK_TYPE DIST2LAND LANDFALL IFLAG USA_AGENCY USA_ATCF_ID USA_LAT USA_LON USA_RECORD USA_STATUS USA_WIND USA_PRES USA_SSHS USA_R34_NE USA_R34_SE USA_R34_SW USA_R34_NW USA_R50_NE USA_R50_SE USA_R50_SW USA_R50_NW USA_R64_NE USA_R64_SE USA_R64_SW USA_R64_NW USA_POCI USA_ROCI USA_RMW USA_EYE TOKYO_LAT TOKYO_LON TOKYO_GRADE TOKYO_WIND TOKYO_PRES TOKYO_R50_DIR TOKYO_R50_LONG TOKYO_R50_SHORT TOKYO_R30_DIR TOKYO_R30_LONG TOKYO_R30_SHORT TOKYO_LAND CMA_LAT CMA_LON CMA_CAT CMA_WIND CMA_PRES HKO_LAT HKO_LON HKO_CAT HKO_WIND HKO_PRES NEWDELHI_LAT NEWDELHI_LON NEWDELHI_GRADE NEWDELHI_WIND NEWDELHI_PRES NEWDELHI_CI NEWDELHI_DP NEWDELHI_POCI REUNION_LAT REUNION_LON REUNION_TYPE REUNION_WIND REUNION_PRES REUNION_TNUM REUNION_CI REUNION_RMW REUNION_R34_NE REUNION_R34_SE REUNION_R34_SW REUNION_R34_NW REUNION_R50_NE REUNION_R50_SE REUNION_R50_SW REUNION_R50_NW REUNION_R64_NE REUNION_R64_SE REUNION_R64_SW REUNION_R64_NW BOM_LAT BOM_LON BOM_TYPE BOM_WIND BOM_PRES BOM_TNUM BOM_CI BOM_RMW BOM_R34_NE BOM_R34_SE BOM_R34_SW BOM_R34_NW BOM_R50_NE BOM_R50_SE BOM_R50_SW BOM_R50_NW BOM_R64_NE BOM_R64_SE BOM_R64_SW BOM_R64_NW BOM_ROCI BOM_POCI BOM_EYE BOM_POS_METHOD BOM_PRES_METHOD NADI_LAT NADI_LON NADI_CAT NADI_WIND NADI_PRES WELLINGTON_LAT WELLINGTON_LON WELLINGTON_WIND WELLINGTON_PRES DS824_LAT DS824_LON DS824_STAGE DS824_WIND DS824_PRES TD9636_LAT TD9636_LON TD9636_STAGE TD9636_WIND TD9636_PRES TD9635_LAT TD9635_LON TD9635_WIND TD9635_PRES TD9635_ROCI NEUMANN_LAT NEUMANN_LON NEUMANN_CLASS NEUMANN_WIND NEUMANN_PRES MLC_LAT MLC_LON MLC_CLASS MLC_WIND MLC_PRES USA_GUST BOM_GUST BOM_GUST_PER REUNION_GUST REUNION_GUST_PER USA_SEAHGT USA_SEARAD_NE USA_SEARAD_SE USA_SEARAD_SW USA_SEARAD_NW STORM_SPEED STORM_DIR
1886166N20089 1886 14 NI BB NOT_NAMED 1886-06-15 00:00:00 TS 19.6000 88.8000 main 223 223 _________O____ -1 19.6000 88.8000 TC 45 0 0
1886166N20089 1886 14 NI BB NOT_NAMED 1886-06-15 03:00:00 TS 19.6000 88.8000 main 223 223 _________PO___ -1 19.6000 88.8000 TC 45 19.6000 88.8000 3 0 0
1886166N20089 1886 14 NI BB NOT_NAMED 1886-06-15 06:00:00 TS 19.6150 88.7920 main 223 223 _________OP___ -1 19.6000 88.8000 TC 45 19.6376 88.7800 3 0 0
1886166N20089 1886 14 NI BB NOT_NAMED 1886-06-15 09:00:00 TS 19.6258 88.7863 main 223 223 _________PP___ -1 19.6000 88.8000 TC 45 19.6601 88.7680 3 0 0
1886166N20089 1886 14 NI BB NOT_NAMED 1886-06-15 12:00:00 TS 19.6263 88.7860 main 223 223 _________OP___ -1 19.6000 88.8000 TC 45 19.6526 88.7720 3 0 0
1886166N20089 1886 14 NI BB NOT_NAMED 1886-06-15 15:00:00 TS 19.6000 88.8000 main 223 223 _________PO___ -1 19.6000 88.8000 TC 45 19.6000 88.8000 3 1 148
1886166N20089 1886 14 NI BB NOT_NAMED 1886-06-15 18:00:00 TS 19.5512 88.8260 main 223 223 _________OP___ -1 19.6000 88.8000 TC 45 19.5023 88.8520 3 1 150
1886166N20089 1886 14 NI BB NOT_NAMED 1886-06-15 21:00:00 TS 19.4761 88.8666 main 234 234 _________PP___ -1 19.5324 88.8373 TC 45 19.4197 88.8959 3 0 162
1886166N20089 1886 14 NI BB NOT_NAMED 1886-06-16 00:00:00 TS 19.5136 88.8459 main 230 209 _________OP___ -1 19.6000 88.8000 TC 45 19.4272 88.8919 3 3 332
1886166N20089 1886 14 NI BB NOT_NAMED 1886-06-16 03:00:00 TS 19.7687 88.7048 main 202 145 _________PO___ -1 19.9375 88.6097 TC 45 19.6000 88.8000 3 9 335
1886166N20089 1886 14 NI BB NOT_NAMED 1886-06-16 06:00:00 TS 20.2859 88.4550 main 145 78 _________OP___ -1 20.5000 88.3000 TC 45 20.0719 88.6101 3 13 336
1886166N20089 1886 14 NI BB NOT_NAMED 1886-06-16 09:00:00 TS 20.9797 88.1310 main 67 0 _________PP___ -1 21.2574 87.9380 TC 45 20.7020 88.3240 3 16 334
1886166N20089 1886 14 NI BB NOT_NAMED 1886-06-16 12:00:00 TS 21.6905 87.7254 main 0 0 _________OP___ -1 22.0000 87.5000 TC 45 21.3811 87.9507 3 15 328
1886166N20089 1886 14 NI BB NOT_NAMED 1886-06-16 15:00:00 TS 22.2374 87.2685 main 0 0 _________PO___ -1 22.4747 87.0370 TC 41 22.0000 87.5000 3 13 315
1886166N20089 1886 14 NI BB NOT_NAMED 1886-06-16 18:00:00 TS 22.6211 86.7204 main 0 0 _________OP___ -1 22.8000 86.5000 TC 37 22.4421 86.9408 3 13 303
1886166N20089 1886 14 NI BB NOT_NAMED 1886-06-16 21:00:00 TS 22.9489 86.0632 main 0 0 _________PP___ -1 23.0956 85.8052 TC 33 22.8022 86.3212 3 13 296
1886166N20089 1886 14 NI BB NOT_NAMED 1886-06-17 00:00:00 TS 23.1930 85.4579 main 0 0 _________OP___ -1 23.3000 85.2000 TC 30 23.0859 85.7159 3 10 294
1886166N20089 1886 14 NI BB NOT_NAMED 1886-06-17 03:00:00 TS 23.3610 85.0698 main 0 0 _________PO___ -1 23.4220 84.9396 TC 30 23.3000 85.2000 1 6 297
1886166N20089 1886 14 NI BB NOT_NAMED 1886-06-17 06:00:00 TS 23.4816 84.8424 main 0 0 _________OP___ -1 23.5000 84.8000 TC 30 23.4632 84.8849 1 5 298
1886166N20089 1886 14 NI BB NOT_NAMED 1886-06-17 09:00:00 TS 23.5828 84.6152 main 0 0 _________PP___ -1 23.6000 84.5650 TC 30 23.5657 84.6655 1 5 294
1886166N20089 1886 14 NI BB NOT_NAMED 1886-06-17 12:00:00 TS 23.6677 84.3942 main 0 0 _________OP___ -1 23.7000 84.3000 TC 30 23.6354 84.4885 1 5 292
1886166N20089 1886 14 NI BB NOT_NAMED 1886-06-17 15:00:00 TS 23.7500 84.1537 main 0 0 _________PO___ -1 23.8000 84.0075 TC 30 23.7000 84.3000 1 5 291
1886166N20089 1886 14 NI BB NOT_NAMED 1886-06-17 18:00:00 TS 23.8478 83.8728 main 0 0 _________OP___ -1 23.9000 83.7000 TC 30 23.7956 84.0456 1 5 291
1886166N20089 1886 14 NI BB NOT_NAMED 1886-06-17 21:00:00 TS 23.9421 83.5947 main 0 0 _________PP___ -1 23.9923 83.4223 TC 30 23.8919 83.7670 1 6 290
1886166N20089 1886 14 NI BB NOT_NAMED 1886-06-18 00:00:00 TS 24.0461 83.2775 main 0 0 _________OP___ -1 24.1000 83.1000 TC 30 23.9923 83.4549 1 7 290
1886166N20089 1886 14 NI BB NOT_NAMED 1886-06-18 03:00:00 TS 24.1750 82.8863 main 0 0 _________PO___ -1 24.2500 82.6726 TC 30 24.1000 83.1000 1 8 289
1886166N20089 1886 14 NI BB NOT_NAMED 1886-06-18 06:00:00 TS 24.3091 82.4425 main 0 0 _________OP___ -1 24.4000 82.2000 TC 30 24.2181 82.6851 1 9 287
1886166N20089 1886 14 NI BB NOT_NAMED 1886-06-18 09:00:00 TS 24.4252 81.9862 main 0 0 _________PP___ -1 24.5074 81.7424 TC 30 24.3429 82.2301 1 9 285
1886166N20089 1886 14 NI BB NOT_NAMED 1886-06-18 12:00:00 TS 24.5356 81.5300 main 0 0 _________OP___ -1 24.6000 81.3000 TC 30 24.4712 81.7600 1 8 285
1886166N20089 1886 14 NI BB NOT_NAMED 1886-06-18 15:00:00 TS 24.6462 81.0962 main 0 0 _________PO___ -1 24.6923 80.8923 TC 30 24.6000 81.3000 1 8 286
1886166N20089 1886 14 NI BB NOT_NAMED 1886-06-18 18:00:00 TS 24.7390 80.7280 main 0 0 _________OP___ -1 24.8000 80.5000 TC 30 24.6780 80.9560 1 7 287
1886166N20089 1886 14 NI BB NOT_NAMED 1886-06-18 21:00:00 TS 24.8377 80.3948 main 0 0 _________PP___ -1 24.9115 80.1741 TC 30 24.7639 80.6155 1 7 290
1886166N20089 1886 14 NI BB NOT_NAMED 1886-06-19 00:00:00 TS 24.9965 79.9587 main 0 0 _________OP___ -1 25.1000 79.7000 TC 30 24.8930 80.2175 1 11 292
1886166N20089 1886 14 NI BB NOT_NAMED 1886-06-19 03:00:00 TS 25.2529 79.2801 main 0 0 _________PO___ -1 25.4058 78.8603 TC 30 25.1000 79.7000 1 15 293
1886166N20089 1886 14 NI BB NOT_NAMED 1886-06-19 06:00:00 TS 25.5940 78.4121 main 0 0 _________OP___ -1 25.8000 77.9000 TC 30 25.3879 78.9243 1 17 295
1886166N20089 1886 14 NI AS NOT_NAMED 1886-06-19 09:00:00 TS 25.9875 77.5435 main 0 0 _________PP___ -1 26.2198 77.0547 TC 30 25.7552 78.0323 1 18 299
1886166N20089 1886 14 NI AS NOT_NAMED 1886-06-19 12:00:00 TS 26.4472 76.7119 main 0 0 _________OP___ -1 26.7000 76.3000 TC 30 26.1943 77.1238 1 17 305
1886166N20089 1886 14 NI AS NOT_NAMED 1886-06-19 15:00:00 TS 26.9561 75.9697 main 0 0 _________PO___ -1 27.2122 75.6395 TC 30 26.7000 76.3000 1 16 313
1886166N20089 1886 14 NI AS NOT_NAMED 1886-06-19 18:00:00 TS 27.5556 75.3700 main 0 0 _________OP___ -1 27.8000 75.1000 TC 30 27.3113 75.6401 1 16 323
1886166N20089 1886 14 NI AS NOT_NAMED 1886-06-19 21:00:00 TS 28.2577 74.8590 main 0 0 _________PP___ -1 28.5373 74.6329 TC 30 27.9780 75.0851 1 16 330
1886166N20089 1886 14 NI AS NOT_NAMED 1886-06-20 00:00:00 TS 28.9154 74.4686 main 0 0 _________OP___ -1 29.2000 74.3000 TC 30 28.6308 74.6372 1 13 333
1886166N20089 1886 14 NI AS NOT_NAMED 1886-06-20 03:00:00 TS 29.3799 74.2020 main 0 0 _________PO___ -1 29.5598 74.1041 TC 30 29.2000 74.3000 1 9 334
1886166N20089 1886 14 NI AS NOT_NAMED 1886-06-20 06:00:00 TS 29.6961 74.0278 main 0 0 _________OP___ -1 29.8000 74.0000 TC 30 29.5922 74.0556 1 7 337
1886166N20089 1886 14 NI AS NOT_NAMED 1886-06-20 09:00:00 TS 29.9980 73.9054 main 0 0 _________PP___ -1 30.1000 73.8924 TC 30 29.8960 73.9184 1 6 343
1886166N20089 1886 14 NI AS NOT_NAMED 1886-06-20 12:00:00 TS 30.2760 73.8236 main 0 0 _________OP___ -1 30.4000 73.8000 TC 30 30.1520 73.8473 1 6 346
1886166N20089 1886 14 NI AS NOT_NAMED 1886-06-20 15:00:00 TS 30.5500 73.7463 main 0 0 _________PO___ -1 30.7000 73.6925 TC 30 30.4000 73.8000 1 6 346
1886166N20089 1886 14 NI AS NOT_NAMED 1886-06-20 18:00:00 TS 30.8459 73.6551 main 0 0 _________OP___ -1 31.0000 73.6000 TC 30 30.6918 73.7102 1 6 348
1886166N20089 1886 14 NI AS NOT_NAMED 1886-06-20 21:00:00 TS 31.1387 73.5921 main 0 0 _________PP___ -1 31.2925 73.5498 TC 30 30.9849 73.6345 1 6 350
1886166N20089 1886 14 NI AS NOT_NAMED 1886-06-21 00:00:00 TS 31.4428 73.5332 main 0 0 _________OP___ -1 31.6000 73.5000 TC 30 31.2856 73.5665 1 6 349
1886166N20089 1886 14 NI AS NOT_NAMED 1886-06-21 03:00:00 TS 31.7713 73.4501 main 0 0 _________PO___ -1 31.9425 73.4001 TC 30 31.6000 73.5000 1 7 348
1886166N20089 1886 14 NI AS NOT_NAMED 1886-06-21 06:00:00 TS 32.1199 73.3585 main 0 0 _________OP___ -1 32.3000 73.3000 TC 30 31.9397 73.4170 1 7 349
1886166N20089 1886 14 NI AS NOT_NAMED 1886-06-21 09:00:00 TS 32.4750 73.2888 main 0 0 _________PP___ -1 32.6575 73.2424 TC 30 32.2925 73.3352 1 7 352
1886166N20089 1886 14 NI AS NOT_NAMED 1886-06-21 12:00:00 TS 32.8245 73.2304 main 0 0 _________OP___ -1 33.0000 73.2000 TC 30 32.6491 73.2608 1 7 352
1886166N20089 1886 14 NI AS NOT_NAMED 1886-06-21 15:00:00 TS 33.1500 73.1713 main 0 0 _________PO___ -1 33.3000 73.1425 TC 30 33.0000 73.2000 1 6 353
1886166N20089 1886 14 NI AS NOT_NAMED 1886-06-21 18:00:00 TS 33.4503 73.1328 main 0 0 _________OP___ -1 33.6000 73.1000 TC 30 33.3381 73.1573 1 6 356
1886166N20089 1886 14 NI AS NOT_NAMED 1886-06-21 21:00:00 TS 33.7740 73.1138 main 0 0 _________PP___ -1 33.9375 73.0899 TC 30 33.6650 73.1298 1 6 0
1886166N20089 1886 14 NI AS NOT_NAMED 1886-06-22 00:00:00 TS 34.0896 73.1082 main 0 0 _________OP___ -1 34.3000 73.1000 TC 30 33.9844 73.1124 1 5 358
1886166N20089 1886 14 NI AS NOT_NAMED 1886-06-22 03:00:00 NR 34.3000 73.1000 main 0 __________O___ -1 TC 34.3000 73.1000 1 4 0

IBTrACS Databaseについて

本データベースは、米国NOAAが公開する1842年以降の世界の熱帯低気圧のベストトラックデータアーカイブInternational Best Track Archive for Climate Stewardship (IBTrACS)を、ウェブで閲覧しやすい形式に変換したものです。

最終更新日:2021-10-08